createdAt,value
2023-05-04T00:00:17.107Z,100981.36
2023-05-04T00:02:43.769Z,100982.58
2023-05-04T00:05:12.192Z,100981.91
2023-05-04T00:07:39.076Z,100979.42
2023-05-04T00:10:06.812Z,100986.09
2023-05-04T00:12:33.813Z,100980.78
2023-05-04T00:15:00.576Z,100982.43
2023-05-04T00:17:27.263Z,100981.71
2023-05-04T00:19:54.069Z,100983.11
2023-05-04T00:22:20.833Z,100987.36
2023-05-04T00:24:47.602Z,100990.66
2023-05-04T00:27:14.274Z,100991.61
2023-05-04T00:29:40.904Z,100990.38
2023-05-04T00:32:07.734Z,100989.16
2023-05-04T00:34:34.559Z,100990.09
2023-05-04T00:37:01.348Z,100986.02
2023-05-04T00:39:28.225Z,100982.73
2023-05-04T00:41:54.930Z,100983.41
2023-05-04T00:44:24.106Z,100977.45
2023-05-04T00:46:52.667Z,100982.12
2023-05-04T00:49:21.387Z,100978.29
2023-05-04T00:51:49.041Z,100972.73
2023-05-04T00:54:18.939Z,100973.52
2023-05-04T00:56:45.931Z,100974.61
2023-05-04T00:59:14.061Z,100978.54
2023-05-04T01:01:41.443Z,100973.92
2023-05-04T01:04:08.352Z,100978.30
2023-05-04T01:06:44.156Z,100977.41
2023-05-04T01:09:31.347Z,100977.05
2023-05-04T01:12:08.434Z,100981.18
2023-05-04T01:14:35.943Z,100984.47
2023-05-04T01:17:04.997Z,100982.90
2023-05-04T01:19:32.022Z,100978.17
2023-05-04T01:21:58.729Z,100980.87
2023-05-04T01:24:25.907Z,100976.73
2023-05-04T01:26:55.997Z,100974.11
2023-05-04T01:29:30.249Z,100971.16
2023-05-04T01:31:57.090Z,100965.25
2023-05-04T01:34:24.047Z,100965.52
2023-05-04T01:36:50.706Z,100972.95
2023-05-04T01:39:17.323Z,100974.38
2023-05-04T01:41:44.035Z,100969.30
2023-05-04T01:44:11.167Z,100967.00
2023-05-04T01:46:37.893Z,100969.88
2023-05-04T01:49:07.206Z,100968.07
2023-05-04T01:51:33.792Z,100969.39
2023-05-04T01:54:00.598Z,100966.31
2023-05-04T01:56:27.244Z,100971.16
2023-05-04T01:58:53.864Z,100971.21
2023-05-04T02:01:21.243Z,100966.29
2023-05-04T02:03:48.279Z,100961.80
2023-05-04T02:06:15.133Z,100964.67
2023-05-04T02:08:42.506Z,100966.16
2023-05-04T02:11:09.226Z,100965.53
2023-05-04T02:13:36.644Z,100963.76
2023-05-04T02:16:03.524Z,100957.11
2023-05-04T02:18:30.296Z,100950.96
2023-05-04T02:20:57.017Z,100947.33
2023-05-04T02:23:23.680Z,100952.79
2023-05-04T02:25:52.243Z,100959.01
2023-05-04T02:28:18.906Z,100966.85
2023-05-04T02:30:45.935Z,100975.40
2023-05-04T02:33:12.644Z,100982.77
2023-05-04T02:35:39.269Z,100981.34
2023-05-04T02:38:06.081Z,100977.20
2023-05-04T02:40:33.286Z,100969.70
2023-05-04T02:43:00.023Z,100969.66
2023-05-04T02:45:26.758Z,100968.65
2023-05-04T02:47:54.016Z,100961.64
2023-05-04T02:50:20.937Z,100963.20
2023-05-04T02:52:47.541Z,100965.08
2023-05-04T02:55:14.341Z,100967.04
2023-05-04T02:57:41.108Z,100962.77
2023-05-04T03:00:08.595Z,100958.17
2023-05-04T03:02:35.343Z,100952.03
2023-05-04T03:05:02.112Z,100951.59
2023-05-04T03:07:28.906Z,100951.20
2023-05-04T03:09:55.551Z,100951.85
2023-05-04T03:12:22.162Z,100950.90
2023-05-04T03:14:48.830Z,100941.77
2023-05-04T03:17:15.524Z,100942.98
2023-05-04T03:19:42.629Z,100946.14
2023-05-04T03:22:09.760Z,100943.39
2023-05-04T03:24:37.889Z,100941.59
2023-05-04T03:27:04.529Z,100939.36
2023-05-04T03:29:31.779Z,100935.88
2023-05-04T03:31:58.675Z,100936.25
2023-05-04T03:34:25.392Z,100932.96
2023-05-04T03:36:55.582Z,100937.20
2023-05-04T03:39:22.272Z,100938.98
2023-05-04T03:41:49.734Z,100936.65
2023-05-04T03:44:16.416Z,100941.09
2023-05-04T03:46:44.215Z,100943.66
2023-05-04T03:49:11.327Z,100951.16
2023-05-04T03:51:38.694Z,100956.59
2023-05-04T03:54:06.107Z,100950.13
2023-05-04T03:56:32.809Z,100955.27
2023-05-04T03:58:59.520Z,100960.02
2023-05-04T04:01:29.066Z,100964.13
2023-05-04T04:03:56.679Z,100968.50
2023-05-04T04:06:23.552Z,100967.63
2023-05-04T04:08:50.247Z,100966.55
2023-05-04T04:11:16.896Z,100963.72
2023-05-04T04:13:43.541Z,100957.85
2023-05-04T04:16:10.515Z,100962.79
2023-05-04T04:18:37.209Z,100975.27
2023-05-04T04:21:03.976Z,100977.55
2023-05-04T04:23:31.216Z,100983.62
2023-05-04T04:25:58.480Z,100981.35
2023-05-04T04:28:25.100Z,100981.15
2023-05-04T04:30:51.776Z,100981.92
2023-05-04T04:33:18.553Z,100977.87
2023-05-04T04:35:45.254Z,100976.73
2023-05-04T04:38:11.964Z,100973.52
2023-05-04T04:40:38.752Z,100974.52
2023-05-04T04:43:05.700Z,100977.28
2023-05-04T04:45:33.791Z,100978.14
2023-05-04T04:48:01.124Z,100988.44
2023-05-04T04:50:29.194Z,100985.37
2023-05-04T04:52:56.260Z,100984.13
2023-05-04T04:55:25.955Z,100985.05
2023-05-04T04:57:53.160Z,100992.35
2023-05-04T05:00:20.416Z,100990.13
2023-05-04T05:02:47.113Z,100991.79
2023-05-04T05:05:13.895Z,100988.48
2023-05-04T05:07:40.740Z,100989.79
2023-05-04T05:10:08.706Z,100985.85
2023-05-04T05:12:35.900Z,100988.77
2023-05-04T05:15:04.551Z,100984.30
2023-05-04T05:17:31.497Z,100984.27
2023-05-04T05:19:58.217Z,100988.85
2023-05-04T05:22:25.131Z,100992.84
2023-05-04T05:24:51.971Z,100990.75
2023-05-04T05:27:18.602Z,100986.08
2023-05-04T05:29:45.738Z,100986.80
2023-05-04T05:32:12.543Z,100986.23
2023-05-04T05:34:39.193Z,100989.93
2023-05-04T05:37:05.854Z,100987.19
2023-05-04T05:39:32.485Z,100986.55
2023-05-04T05:41:59.443Z,100984.95
2023-05-04T05:44:26.099Z,100983.71
2023-05-04T05:46:52.920Z,100987.73
2023-05-04T05:49:19.842Z,100986.59
2023-05-04T05:51:46.501Z,100985.31
2023-05-04T05:54:13.193Z,100979.66
2023-05-04T05:56:39.795Z,100971.13
2023-05-04T05:59:06.659Z,100968.39
2023-05-04T06:01:33.387Z,100968.23
2023-05-04T06:04:00.359Z,100966.63
2023-05-04T06:06:27.225Z,100970.06
2023-05-04T06:08:53.851Z,100967.13
2023-05-04T06:11:21.333Z,100961.95
2023-05-04T06:13:47.993Z,100959.14
2023-05-04T06:16:14.801Z,100965.16
2023-05-04T06:18:41.652Z,100967.63
2023-05-04T06:21:09.055Z,100958.66
2023-05-04T06:23:36.839Z,100956.96
2023-05-04T06:26:08.023Z,100953.31
2023-05-04T06:28:34.982Z,100945.15
2023-05-04T06:31:02.387Z,100941.08
2023-05-04T06:33:29.061Z,100935.73
2023-05-04T06:35:55.722Z,100939.19
2023-05-04T06:38:22.544Z,100942.52
2023-05-04T06:40:49.169Z,100941.82
2023-05-04T06:43:16.021Z,100941.35
2023-05-04T06:45:43.369Z,100941.00
2023-05-04T06:48:10.392Z,100942.67
2023-05-04T06:50:37.155Z,100938.34
2023-05-04T06:53:05.929Z,100939.65
2023-05-04T06:55:32.568Z,100945.14
2023-05-04T06:57:59.288Z,100945.30
2023-05-04T07:00:26.151Z,100942.92
2023-05-04T07:02:53.822Z,100944.77
2023-05-04T07:05:21.461Z,100946.73
2023-05-04T07:07:51.184Z,100943.56
2023-05-04T07:10:19.638Z,100945.38
2023-05-04T07:12:47.000Z,100943.57
2023-05-04T07:15:13.893Z,100948.77
2023-05-04T07:17:41.160Z,100952.35
2023-05-04T07:20:08.618Z,100950.52
2023-05-04T07:22:35.468Z,100949.17
2023-05-04T07:25:02.220Z,100943.65
2023-05-04T07:27:29.103Z,100947.25
2023-05-04T07:29:55.943Z,100951.09
2023-05-04T07:32:22.935Z,100952.02
2023-05-04T07:34:49.729Z,100960.79
2023-05-04T07:37:16.473Z,100965.38
2023-05-04T07:39:43.107Z,100965.97
2023-05-04T07:42:11.626Z,100965.84
2023-05-04T07:44:38.348Z,100962.92
2023-05-04T07:47:04.990Z,100961.75
2023-05-04T07:49:31.615Z,100964.23
2023-05-04T07:51:58.379Z,100957.79
2023-05-04T07:54:25.005Z,100957.59
2023-05-04T07:56:51.917Z,100957.20
2023-05-04T07:59:21.767Z,100957.55
2023-05-04T08:01:48.791Z,100950.59
2023-05-04T08:04:15.978Z,100944.20
2023-05-04T08:06:42.603Z,100940.31
2023-05-04T08:09:09.552Z,100940.61
2023-05-04T08:11:37.956Z,100939.67
2023-05-04T08:14:05.063Z,100941.05
2023-05-04T08:16:32.465Z,100935.30
2023-05-04T08:19:01.240Z,100935.04
2023-05-04T08:21:28.111Z,100931.48
2023-05-04T08:23:54.984Z,100930.37
2023-05-04T08:26:21.721Z,100927.34
2023-05-04T08:28:49.042Z,100924.98
2023-05-04T08:31:16.840Z,100923.42
2023-05-04T08:33:43.712Z,100927.91
2023-05-04T08:36:10.401Z,100924.64
2023-05-04T08:38:37.071Z,100921.10
2023-05-04T08:41:04.516Z,100916.89
2023-05-04T08:43:34.236Z,100916.02
2023-05-04T08:46:00.965Z,100913.83
2023-05-04T08:48:27.715Z,100911.50
2023-05-04T08:50:54.331Z,100912.24
2023-05-04T08:53:21.608Z,100914.65
2023-05-04T08:55:48.324Z,100910.96
2023-05-04T08:58:15.870Z,100911.64
2023-05-04T09:00:43.656Z,100916.04
2023-05-04T09:03:10.559Z,100915.02
2023-05-04T09:05:38.443Z,100919.46
2023-05-04T09:08:05.745Z,100917.70
2023-05-04T09:10:33.599Z,100915.93
2023-05-04T09:13:00.792Z,100915.00
2023-05-04T09:15:29.400Z,100916.20
2023-05-04T09:18:07.841Z,100910.06
2023-05-04T09:20:48.025Z,100911.09
2023-05-04T09:23:16.595Z,100903.91
2023-05-04T09:25:48.967Z,100902.70
2023-05-04T09:28:17.139Z,100901.54
2023-05-04T09:30:45.027Z,100899.62
2023-05-04T09:33:12.970Z,100895.89
2023-05-04T09:35:41.352Z,100893.25
2023-05-04T09:39:11.795Z,100894.70
2023-05-04T09:41:39.657Z,100891.59
2023-05-04T09:44:07.291Z,100890.96
2023-05-04T09:46:36.547Z,100887.58
2023-05-04T09:49:03.822Z,100880.45
2023-05-04T09:51:30.423Z,100876.05
2023-05-04T09:53:58.236Z,100877.08
2023-05-04T09:56:35.685Z,100879.08
2023-05-04T09:59:02.999Z,100874.23
2023-05-04T10:01:29.881Z,100872.15
2023-05-04T10:03:57.026Z,100867.63
2023-05-04T10:06:24.134Z,100873.98
2023-05-04T10:08:51.148Z,100869.39
2023-05-04T10:11:19.272Z,100867.10
2023-05-04T10:13:47.095Z,100861.87
2023-05-04T10:16:20.650Z,100860.86
2023-05-04T10:18:59.313Z,100851.70
2023-05-04T10:21:58.889Z,100854.61
2023-05-04T10:24:51.586Z,100855.63
2023-05-04T10:27:20.082Z,100855.58
2023-05-04T10:29:50.860Z,100850.63
2023-05-04T10:32:21.277Z,100850.73
2023-05-04T10:34:48.182Z,100843.52
2023-05-04T10:37:19.096Z,100845.77
2023-05-04T10:39:55.271Z,100846.23
2023-05-04T10:42:22.344Z,100845.73
2023-05-04T10:44:53.369Z,100845.73
2023-05-04T10:47:32.680Z,100843.58
2023-05-04T10:50:04.821Z,100843.30
2023-05-04T10:52:32.993Z,100838.50
2023-05-04T10:55:05.552Z,100835.68
2023-05-04T10:57:32.440Z,100829.44
2023-05-04T10:59:59.164Z,100832.67
2023-05-04T11:02:26.641Z,100829.75
2023-05-04T11:05:04.588Z,100819.41
2023-05-04T11:07:38.640Z,100819.89
2023-05-04T11:10:10.590Z,100822.63
2023-05-04T11:12:37.778Z,100824.30
2023-05-04T11:15:10.401Z,100826.41
2023-05-04T11:17:47.549Z,100820.98
2023-05-04T11:20:24.454Z,100813.46
2023-05-04T11:22:51.355Z,100807.56
2023-05-04T11:25:18.225Z,100804.52
2023-05-04T11:27:49.066Z,100805.00
2023-05-04T11:30:17.284Z,100799.34
2023-05-04T11:32:46.637Z,100799.16
2023-05-04T11:35:18.742Z,100794.73
2023-05-04T11:37:46.345Z,100793.96
2023-05-04T11:40:22.037Z,100791.77
2023-05-04T11:42:50.140Z,100789.41
2023-05-04T11:45:18.384Z,100790.32
2023-05-04T11:47:45.705Z,100790.08
2023-05-04T11:50:13.783Z,100786.59
2023-05-04T11:52:41.647Z,100775.09
2023-05-04T11:55:09.886Z,100769.61
2023-05-04T11:57:39.855Z,100768.61
2023-05-04T12:00:08.406Z,100768.20
2023-05-04T12:02:35.421Z,100765.48
2023-05-04T12:05:02.195Z,100765.67
2023-05-04T12:07:28.885Z,100760.04
2023-05-04T12:09:55.578Z,100758.44
2023-05-04T12:12:22.301Z,100756.86
2023-05-04T12:14:49.856Z,100755.27
2023-05-04T12:17:16.547Z,100754.88
2023-05-04T12:19:54.296Z,100755.52
2023-05-04T12:22:30.380Z,100747.61
2023-05-04T12:24:58.714Z,100744.85
2023-05-04T12:27:27.877Z,100740.80
2023-05-04T12:29:54.967Z,100742.52
2023-05-04T12:32:21.626Z,100741.63
2023-05-04T12:34:48.285Z,100736.09
2023-05-04T12:37:15.347Z,100735.19
2023-05-04T12:39:42.794Z,100733.73
2023-05-04T12:42:09.700Z,100733.38
2023-05-04T12:44:36.369Z,100737.55
2023-05-04T12:47:03.440Z,100731.63
2023-05-04T12:49:30.058Z,100729.98
2023-05-04T12:51:58.148Z,100727.06
2023-05-04T12:54:24.847Z,100724.40
2023-05-04T12:56:51.521Z,100729.70
2023-05-04T12:59:18.126Z,100728.86
2023-05-04T13:01:44.894Z,100722.40
2023-05-04T13:04:11.514Z,100722.70
2023-05-04T13:06:38.464Z,100716.75
2023-05-04T13:09:06.002Z,100712.73
2023-05-04T13:11:33.041Z,100713.70
2023-05-04T13:13:59.924Z,100707.72
2023-05-04T13:16:28.169Z,100708.41
2023-05-04T13:18:55.569Z,100700.95
2023-05-04T13:21:22.396Z,100701.80
2023-05-04T13:23:49.209Z,100702.38
2023-05-04T13:26:15.930Z,100704.90
2023-05-04T13:28:42.763Z,100696.96
2023-05-04T13:31:10.357Z,100698.42
2023-05-04T13:33:38.859Z,100693.98
2023-05-04T13:36:06.921Z,100688.80
2023-05-04T13:38:33.741Z,100687.55
2023-05-04T13:41:00.481Z,100680.02
2023-05-04T13:43:28.038Z,100676.86
2023-05-04T13:45:57.096Z,100675.61
2023-05-04T13:48:25.735Z,100680.36
2023-05-04T13:50:52.885Z,100677.73
2023-05-04T13:53:19.549Z,100679.59
2023-05-04T13:55:46.852Z,100675.92
2023-05-04T13:58:13.514Z,100672.46
2023-05-04T14:00:40.325Z,100674.75
2023-05-04T14:03:07.114Z,100669.70
2023-05-04T14:05:35.572Z,100677.84
2023-05-04T14:08:02.974Z,100681.32
2023-05-04T14:10:29.752Z,100676.55
2023-05-04T14:12:56.421Z,100677.11
2023-05-04T14:15:23.218Z,100671.95
2023-05-04T14:17:50.210Z,100674.64
2023-05-04T14:20:17.150Z,100672.85
2023-05-04T14:22:44.388Z,100668.46
2023-05-04T14:25:11.439Z,100680.88
2023-05-04T14:27:38.050Z,100684.48
2023-05-04T14:30:05.554Z,100685.75
2023-05-04T14:32:32.361Z,100691.48
2023-05-04T14:35:07.798Z,100697.09
2023-05-04T14:37:36.380Z,100704.98
2023-05-04T14:40:06.433Z,100718.18
2023-05-04T14:42:33.291Z,100715.11
2023-05-04T14:44:59.879Z,100712.87
2023-05-04T14:47:27.584Z,100715.17
2023-05-04T14:49:54.391Z,100716.71
2023-05-04T14:52:21.373Z,100718.59
2023-05-04T14:54:48.048Z,100709.08
2023-05-04T14:57:14.709Z,100713.46
2023-05-04T14:59:42.129Z,100719.14
2023-05-04T15:02:09.240Z,100721.85
2023-05-04T15:04:36.395Z,100721.77
2023-05-04T15:07:04.402Z,100720.41
2023-05-04T15:09:31.304Z,100723.98
2023-05-04T15:11:58.753Z,100724.20
2023-05-04T15:14:26.451Z,100722.24
2023-05-04T15:16:53.176Z,100721.80
2023-05-04T15:19:21.210Z,100724.02
2023-05-04T15:21:49.077Z,100725.50
2023-05-04T15:24:15.667Z,100732.10
2023-05-04T15:26:42.248Z,100731.88
2023-05-04T15:29:09.009Z,100734.02
2023-05-04T15:31:35.825Z,100744.19
2023-05-04T15:34:02.901Z,100747.63
2023-05-04T15:36:31.864Z,100749.05
2023-05-04T15:38:58.566Z,100753.06
2023-05-04T15:41:25.330Z,100755.52
2023-05-04T15:43:51.979Z,100759.98
2023-05-04T15:46:18.597Z,100760.70
2023-05-04T15:48:45.508Z,100759.36
2023-05-04T15:51:12.319Z,100761.91
2023-05-04T15:53:39.163Z,100765.58
2023-05-04T15:56:06.392Z,100769.91
2023-05-04T15:58:33.251Z,100778.94
2023-05-04T16:01:03.860Z,100782.88
2023-05-04T16:03:31.667Z,100780.30
2023-05-04T16:05:58.748Z,100785.19
2023-05-04T16:08:25.903Z,100781.14
2023-05-04T16:10:53.664Z,100783.39
2023-05-04T16:13:21.045Z,100785.85
2023-05-04T16:15:53.984Z,100788.31
2023-05-04T16:18:20.779Z,100787.05
2023-05-04T16:20:47.659Z,100788.65
2023-05-04T16:23:15.646Z,100789.83
2023-05-04T16:25:42.393Z,100795.76
2023-05-04T16:28:09.035Z,100800.40
2023-05-04T16:30:36.025Z,100806.36
2023-05-04T16:33:03.416Z,100807.00
2023-05-04T16:35:31.058Z,100810.44
2023-05-04T16:37:58.376Z,100817.23
2023-05-04T16:40:25.199Z,100819.23
2023-05-04T16:42:51.899Z,100818.01
2023-05-04T16:45:18.628Z,100816.77
2023-05-04T16:47:45.908Z,100819.96
2023-05-04T16:50:12.926Z,100816.58
2023-05-04T16:52:39.948Z,100825.55
2023-05-04T16:55:10.021Z,100836.66
2023-05-04T16:57:38.166Z,100839.99
2023-05-04T17:00:06.802Z,100840.42
2023-05-04T17:02:33.881Z,100841.06
2023-05-04T17:05:00.943Z,100839.45
2023-05-04T17:07:27.580Z,100835.87
2023-05-04T17:09:54.186Z,100838.56
2023-05-04T17:12:23.352Z,100839.27
2023-05-04T17:14:50.179Z,100846.23
2023-05-04T17:17:16.836Z,100845.58
2023-05-04T17:19:43.481Z,100845.83
2023-05-04T17:22:11.287Z,100838.80
2023-05-04T17:24:38.041Z,100835.36
2023-05-04T17:27:04.693Z,100830.82
2023-05-04T17:29:31.349Z,100832.24
2023-05-04T17:31:58.033Z,100827.67
2023-05-04T17:34:24.813Z,100825.80
2023-05-04T17:36:51.723Z,100825.61
2023-05-04T17:39:19.006Z,100827.64
2023-05-04T17:41:48.986Z,100832.70
2023-05-04T17:44:16.544Z,100838.13
2023-05-04T17:46:43.804Z,100841.98
2023-05-04T17:49:10.507Z,100844.34
2023-05-04T17:51:37.370Z,100842.44
2023-05-04T17:54:04.034Z,100849.21
2023-05-04T17:56:30.841Z,100855.46
2023-05-04T17:58:57.440Z,100861.47
2023-05-04T18:01:24.212Z,100860.58
2023-05-04T18:03:51.097Z,100857.77
2023-05-04T18:06:17.959Z,100853.69
2023-05-04T18:08:44.625Z,100849.69
2023-05-04T18:11:11.935Z,100853.71
2023-05-04T18:13:38.546Z,100855.59
2023-05-04T18:16:05.557Z,100859.37
2023-05-04T18:18:32.241Z,100868.67
2023-05-04T18:21:00.729Z,100873.08
2023-05-04T18:23:27.498Z,100872.41
2023-05-04T18:25:54.172Z,100866.19
2023-05-04T18:28:20.824Z,100870.48
2023-05-04T18:30:47.700Z,100871.95
2023-05-04T18:33:14.393Z,100873.50
2023-05-04T18:35:41.322Z,100877.66
2023-05-04T18:38:08.050Z,100883.95
2023-05-04T18:40:34.715Z,100884.55
2023-05-04T18:43:01.617Z,100882.34
2023-05-04T18:45:29.250Z,100885.89
2023-05-04T18:47:56.180Z,100889.73
2023-05-04T18:50:22.987Z,100900.16
2023-05-04T18:52:49.697Z,100905.61
2023-05-04T18:55:16.532Z,100901.73
2023-05-04T18:57:43.574Z,100903.66
2023-05-04T19:00:11.701Z,100903.95
2023-05-04T19:02:38.618Z,100903.36
2023-05-04T19:05:05.678Z,100902.04
2023-05-04T19:07:32.500Z,100904.53
2023-05-04T19:09:59.262Z,100905.14
2023-05-04T19:12:26.169Z,100892.30
2023-05-04T19:14:52.929Z,100886.91
2023-05-04T19:17:19.925Z,100873.96
2023-05-04T19:19:46.945Z,100869.80
2023-05-04T19:22:15.577Z,100873.63
2023-05-04T19:24:42.270Z,100881.73
2023-05-04T19:27:09.543Z,100886.44
2023-05-04T19:29:36.488Z,100879.81
2023-05-04T19:32:11.882Z,100863.98
2023-05-04T19:34:45.190Z,100875.52
2023-05-04T19:37:12.159Z,100883.59
2023-05-04T19:39:38.890Z,100873.17
2023-05-04T19:42:06.237Z,100866.17
2023-05-04T19:44:32.985Z,100874.58
2023-05-04T19:46:59.636Z,100876.46
2023-05-04T19:49:26.639Z,100874.49
2023-05-04T19:51:53.568Z,100873.54
2023-05-04T19:54:20.811Z,100868.64
2023-05-04T19:56:47.487Z,100870.21
2023-05-04T19:59:14.363Z,100872.30
2023-05-04T20:01:40.962Z,100874.45
2023-05-04T20:04:08.486Z,100874.23
2023-05-04T20:06:35.891Z,100872.02
2023-05-04T20:09:03.985Z,100876.72
2023-05-04T20:11:30.725Z,100874.66
2023-05-04T20:13:57.483Z,100869.24
2023-05-04T20:16:24.145Z,100866.64
2023-05-04T20:18:51.158Z,100857.33
2023-05-04T20:21:17.742Z,100846.79
2023-05-04T20:23:44.606Z,100832.45
2023-05-04T20:26:11.489Z,100825.25
2023-05-04T20:28:38.680Z,100825.61
2023-05-04T20:31:05.627Z,100832.04
2023-05-04T20:33:32.263Z,100844.73
2023-05-04T20:35:58.885Z,100851.63
2023-05-04T20:38:25.961Z,100852.48
2023-05-04T20:40:52.867Z,100858.46
2023-05-04T20:43:19.842Z,100868.05
2023-05-04T20:45:46.501Z,100870.18
2023-05-04T20:48:13.308Z,100871.55
2023-05-04T20:50:40.384Z,100865.19
2023-05-04T20:53:07.038Z,100850.48
2023-05-04T20:55:33.819Z,100842.09
2023-05-04T20:58:00.414Z,100852.02
2023-05-04T21:00:27.199Z,100858.42
2023-05-04T21:02:54.822Z,100862.55
2023-05-04T21:05:21.701Z,100866.69
2023-05-04T21:07:48.301Z,100863.27
2023-05-04T21:10:15.705Z,100862.71
2023-05-04T21:12:42.400Z,100868.08
2023-05-04T21:15:10.235Z,100872.95
2023-05-04T21:17:36.937Z,100877.42
2023-05-04T21:20:04.348Z,100876.11
2023-05-04T21:22:31.283Z,100867.21
2023-05-04T21:24:58.073Z,100856.83
2023-05-04T21:27:24.672Z,100853.34
2023-05-04T21:29:51.277Z,100851.73
2023-05-04T21:32:17.861Z,100855.69
2023-05-04T21:34:44.507Z,100857.70
2023-05-04T21:37:11.123Z,100862.65
2023-05-04T21:39:37.741Z,100871.35
2023-05-04T21:42:04.714Z,100877.52
2023-05-04T21:44:31.442Z,100875.23
2023-05-04T21:46:58.170Z,100873.89
2023-05-04T21:49:24.868Z,100880.79
2023-05-04T21:51:51.443Z,100882.54
2023-05-04T21:57:06.826Z,100877.87
2023-05-04T21:59:33.490Z,100883.18
2023-05-04T22:02:00.148Z,100883.73
2023-05-04T22:04:27.337Z,100886.90
2023-05-04T22:06:53.926Z,100887.21
2023-05-04T22:09:20.565Z,100884.45
2023-05-04T22:11:48.560Z,100886.10
2023-05-04T22:14:15.506Z,100884.63
2023-05-04T22:16:42.185Z,100880.61
2023-05-04T22:19:08.945Z,100879.29
2023-05-04T22:21:37.268Z,100876.38
2023-05-04T22:24:05.562Z,100875.38
2023-05-04T22:26:32.381Z,100873.54
2023-05-04T22:28:59.053Z,100873.30
2023-05-04T22:31:25.917Z,100874.19
2023-05-04T22:33:52.683Z,100877.75
2023-05-04T22:36:19.307Z,100871.52
2023-05-04T22:38:46.343Z,100864.60
2023-05-04T22:41:13.994Z,100863.42
2023-05-04T22:43:40.615Z,100863.89
2023-05-04T22:46:07.401Z,100859.52
2023-05-04T22:48:34.366Z,100855.33
2023-05-04T22:51:01.292Z,100855.20
2023-05-04T22:53:28.023Z,100858.69
2023-05-04T22:55:54.676Z,100858.19
2023-05-04T22:58:21.375Z,100861.88
2023-05-04T23:00:48.881Z,100858.45
2023-05-04T23:03:15.661Z,100856.51
2023-05-04T23:05:42.521Z,100850.43
2023-05-04T23:08:09.120Z,100848.20
2023-05-04T23:10:35.874Z,100845.98
2023-05-04T23:13:02.602Z,100840.47
2023-05-04T23:15:29.351Z,100836.98
2023-05-04T23:17:55.984Z,100834.73
2023-05-04T23:20:22.691Z,100830.46
2023-05-04T23:22:49.327Z,100829.26
2023-05-04T23:25:15.969Z,100825.59
2023-05-04T23:27:42.638Z,100827.69
2023-05-04T23:30:09.891Z,100828.64
2023-05-04T23:32:36.771Z,100825.25
2023-05-04T23:35:03.809Z,100822.34
2023-05-04T23:37:33.984Z,100822.77
2023-05-04T23:40:00.689Z,100822.54
2023-05-04T23:42:27.528Z,100822.30
2023-05-04T23:44:57.743Z,100826.20
2023-05-04T23:47:24.334Z,100828.54
2023-05-04T23:49:50.978Z,100829.85
2023-05-04T23:52:17.716Z,100829.02
2023-05-04T23:54:44.317Z,100824.83
2023-05-04T23:57:11.219Z,100828.17
2023-05-04T23:59:37.844Z,100829.25
